Time;durP1;ratioP1;P1;durP2;ratioP2;P2;SDS_P1;SDS_P2;PMS_P1;PMS_P2;Temp;Humidity;BMP_temperature;BMP_pressure;BME280_temperature;BME280_humidity;BME280_pressure;Samples;Min_cycle;Max_cycle;Signal;HPM_P1;HPM_P2
2022/07/26 00:00:57;;;;;;;7.65;2.60;;;;;;;;;;5085889;28;20780;-78
2022/07/26 00:03:23;;;;;;;7.10;2.50;;;;;;;18.60;82.53;68844.84;5082645;28;20037;-78
2022/07/26 00:05:48;;;;;;;6.78;2.20;;;;;;;;;;5048456;28;20351;-77
2022/07/26 00:08:13;;;;;;;8.70;2.55;;;;;;;18.54;82.82;68829.94;5063339;28;20698;-78
2022/07/26 00:10:45;;;;;;;8.95;2.40;;;;;;;18.56;83.06;68832.22;5069232;28;20040;-79
2022/07/26 00:13:11;;;;;;;10.52;2.72;;;;;;;18.47;83.51;68822.50;5080060;28;20594;-79
2022/07/26 00:15:38;;;;;;;9.95;3.63;;;;;;;18.49;83.75;68830.16;5084655;28;20036;-78
2022/07/26 00:18:04;;;;;;;10.02;2.97;;;;;;;18.47;83.74;68827.91;5082775;28;20072;-78
2022/07/26 00:20:30;;;;;;;8.10;2.58;;;;;;;18.55;83.44;68835.88;5079655;28;20063;-78
2022/07/26 00:22:55;;;;;;;10.65;2.72;;;;;;;;;;5082340;28;20048;-78
2022/07/26 00:25:21;;;;;;;6.40;2.33;;;;;;;;;;5082650;28;20062;-77
2022/07/26 00:27:46;;;;;;;12.27;2.70;;;;;;;18.55;83.69;68836.44;5070322;28;20040;-78
2022/07/26 00:30:12;;;;;;;11.35;2.83;;;;;;;18.55;83.52;68836.44;5064638;28;20045;-78
2022/07/26 00:32:37;;;;;;;10.05;3.08;;;;;;;18.52;83.84;68835.72;5068646;28;20044;-78
2022/07/26 00:35:04;;;;;;;8.75;2.55;;;;;;;18.48;83.93;68828.47;5067291;28;20512;-78
2022/07/26 00:37:29;;;;;;;10.50;3.28;;;;;;;;;;5067374;28;20507;-78
2022/07/26 00:39:54;;;;;;;8.50;2.70;;;;;;;18.48;84.19;68829.03;5066030;28;20072;-78
2022/07/26 00:42:20;;;;;;;10.27;3.13;;;;;;;;;;5066893;28;20039;-78
2022/07/26 00:44:46;;;;;;;8.85;2.30;;;;;;;18.55;83.45;68836.44;5067089;28;20040;-78
2022/07/26 00:47:12;;;;;;;11.77;2.90;;;;;;;18.61;83.28;68842.72;5068095;28;20124;-78
2022/07/26 00:49:38;;;;;;;9.30;2.80;;;;;;;;;;5068042;28;20119;-78
2022/07/26 00:52:04;;;;;;;8.18;2.75;;;;;;;18.56;83.56;68831.63;5064438;28;20123;-78
2022/07/26 00:54:29;;;;;;;10.07;2.55;;;;;;;;;;5044937;28;20060;-78
2022/07/26 00:56:55;;;;;;;6.97;2.50;;;;;;;;;;5047544;28;20095;-78
2022/07/26 00:59:20;;;;;;;11.13;2.90;;;;;;;;;;5050067;28;20114;-79
2022/07/26 01:01:46;;;;;;;7.70;2.35;;;;;;;18.43;83.71;68822.75;5065286;28;20737;-79
2022/07/26 01:04:11;;;;;;;7.78;2.75;;;;;;;18.38;84.08;68811.66;5067579;28;20044;-78
2022/07/26 01:06:37;;;;;;;8.60;2.63;;;;;;;18.36;84.09;68814.78;5068063;28;20048;-78
2022/07/26 01:09:04;;;;;;;9.30;2.58;;;;;;;;;;5052316;28;20513;-78
2022/07/26 01:11:30;;;;;;;8.27;2.90;;;;;;;18.39;83.87;68821.47;5061561;28;20493;-77
2022/07/26 01:13:55;;;;;;;9.77;2.50;;;;;;;18.33;83.97;68811.34;5054738;28;20075;-78
2022/07/26 01:16:21;;;;;;;9.80;2.70;;;;;;;18.27;84.18;68800.25;5080174;28;20043;-78
2022/07/26 01:18:46;;;;;;;6.45;2.42;;;;;;;;;;5081398;28;20036;-78
2022/07/26 01:21:12;;;;;;;7.43;2.17;;;;;;;18.35;83.21;68814.19;5080260;28;20065;-78
2022/07/26 01:23:37;;;;;;;5.45;2.10;;;;;;;;;;5085383;28;20067;-78
2022/07/26 01:26:03;;;;;;;7.50;2.20;;;;;;;;;;5081486;28;20582;-78
2022/07/26 01:28:28;;;;;;;4.78;2.05;;;;;;;18.33;83.00;68806.53;5070671;28;20549;-77
2022/07/26 01:30:54;;;;;;;7.18;2.45;;;;;;;;;;5061798;28;20066;-78
2022/07/26 01:33:19;;;;;;;6.32;2.75;;;;;;;;;;5066495;28;20040;-78
2022/07/26 01:35:45;;;;;;;5.07;2.10;;;;;;;18.22;83.99;68802.03;5068233;28;20041;-78
2022/07/26 01:38:10;;;;;;;6.68;2.10;;;;;;;18.18;84.06;68795.38;5050745;28;20036;-78
2022/07/26 01:40:36;;;;;;;7.18;2.22;;;;;;;18.22;83.62;68793.97;5049616;28;20041;-77
2022/07/26 01:43:01;;;;;;;5.63;2.03;;;;;;;18.15;83.88;68791.91;5067724;28;20060;-78
2022/07/26 01:45:26;;;;;;;8.75;2.47;;;;;;;18.10;84.09;68786.22;5068431;28;20041;-78
2022/07/26 01:47:52;;;;;;;7.13;2.38;;;;;;;18.10;84.24;68786.22;5066557;28;20036;-78
2022/07/26 01:50:18;;;;;;;8.23;2.53;;;;;;;18.07;84.51;68782.81;5066750;28;20679;-78
2022/07/26 01:52:43;;;;;;;9.43;2.30;;;;;;;18.07;84.28;68777.41;5068614;28;20040;-78
2022/07/26 01:55:09;;;;;;;10.07;2.88;;;;;;;18.06;84.37;68781.06;5083367;28;20049;-78
2022/07/26 01:57:35;;;;;;;11.10;2.58;;;;;;;;;;5078726;28;20036;-81
2022/07/26 02:00:00;;;;;;;8.13;2.47;;;;;;;18.16;84.36;68787.69;5067221;28;20127;-79
2022/07/26 02:02:25;;;;;;;9.20;2.80;;;;;;;;;;5066484;28;20417;-78
2022/07/26 02:05:00;;;;;;;6.90;2.47;;;;;;;18.17;83.67;68788.25;5059897;28;20057;-79
2022/07/26 02:07:32;;;;;;;8.65;2.50;;;;;;;18.08;84.45;68783.94;5065841;28;20036;-78
2022/07/26 02:09:58;;;;;;;7.85;2.75;;;;;;;18.17;83.91;68794.22;5063407;28;20566;-79
2022/07/26 02:12:24;;;;;;;7.68;2.45;;;;;;;18.08;84.15;68783.94;5065246;28;20036;-79
2022/07/26 02:14:50;;;;;;;9.63;2.60;;;;;;;18.06;84.38;68784.34;5061897;28;20048;-79
2022/07/26 02:17:15;;;;;;;9.35;3.00;;;;;;;;;;5062244;28;20064;-78
2022/07/26 02:19:41;;;;;;;8.77;2.38;;;;;;;18.06;84.57;68781.66;5075359;28;20099;-79
2022/07/26 02:22:06;;;;;;;7.70;2.60;;;;;;;;;;5049057;28;20047;-79
2022/07/26 02:24:32;;;;;;;7.30;2.67;;;;;;;;;;5049978;28;20037;-78
2022/07/26 02:26:59;;;;;;;8.25;2.65;;;;;;;17.98;84.67;68767.72;5068459;28;20213;-80
2022/07/26 02:29:25;;;;;;;9.45;3.00;;;;;;;18.01;84.72;68776.53;5067928;28;20102;-79
2022/07/26 02:31:51;;;;;;;7.68;2.72;;;;;;;17.95;85.17;68775.06;5066637;28;20041;-79
2022/07/26 02:34:16;;;;;;;7.03;2.58;;;;;;;;;;5067495;28;20444;-79
2022/07/26 02:36:42;;;;;;;6.40;2.60;;;;;;;;;;5068152;28;20040;-79
2022/07/26 02:39:07;;;;;;;11.10;2.85;;;;;;;18.00;85.06;68774.81;5069088;28;20044;-79
2022/07/26 02:41:33;;;;;;;5.28;2.55;;;;;;;17.95;85.36;68764.28;5065700;28;20067;-79
2022/07/26 02:43:58;;;;;;;10.68;2.75;;;;;;;;;;5065310;28;20044;-79
2022/07/26 02:46:23;;;;;;;7.00;2.83;;;;;;;;;;5066642;28;20128;-79
2022/07/26 02:48:49;;;;;;;7.67;2.90;;;;;;;17.95;85.92;68769.69;5068664;28;20044;-79
2022/07/26 02:51:14;;;;;;;7.32;2.70;;;;;;;17.97;85.67;68771.94;5065425;28;20287;-79
2022/07/26 02:53:40;;;;;;;8.27;2.92;;;;;;;17.97;85.62;68766.00;5067235;28;20052;-78
2022/07/26 02:56:05;;;;;;;10.27;3.22;;;;;;;17.94;86.03;68762.56;5067371;28;20135;-78
2022/07/26 02:58:31;;;;;;;9.35;3.88;;;;;;;;;;5067938;28;20037;-79
2022/07/26 03:00:56;;;;;;;6.03;2.58;;;;;;;17.96;86.11;68773.50;5057469;28;20146;-80
2022/07/26 03:03:21;;;;;;;10.23;3.72;;;;;;;17.96;86.45;68764.84;5065649;28;20093;-79
2022/07/26 03:05:47;;;;;;;9.95;3.40;;;;;;;;;;5069941;28;20036;-79
2022/07/26 03:08:12;;;;;;;10.45;3.17;;;;;;;17.94;86.78;68770.66;5071278;28;20079;-79
2022/07/26 03:10:37;;;;;;;7.18;2.75;;;;;;;17.99;86.13;68774.22;5068652;28;20053;-79
2022/07/26 03:13:03;;;;;;;10.40;3.55;;;;;;;17.97;86.89;68766.56;5070315;28;20075;-78
2022/07/26 03:15:28;;;;;;;9.32;3.03;;;;;;;;;;5069233;28;20131;-80
2022/07/26 03:17:54;;;;;;;10.45;3.50;;;;;;;;;;5068300;28;20048;-80
2022/07/26 03:20:20;;;;;;;8.30;3.42;;;;;;;17.93;87.24;68767.38;5070016;28;20387;-79
2022/07/26 03:22:45;;;;;;;12.25;3.60;;;;;;;17.94;87.46;68767.94;5068565;28;20036;-78
2022/07/26 03:25:10;;;;;;;8.07;2.80;;;;;;;17.92;87.61;68760.28;5051962;28;20582;-79
2022/07/26 03:27:36;;;;;;;8.02;3.05;;;;;;;17.86;88.25;68759.38;5069932;28;20056;-79
2022/07/26 03:30:02;;;;;;;10.80;3.97;;;;;;;17.90;88.16;68766.09;5068995;28;20048;-77
2022/07/26 03:32:28;;;;;;;11.13;3.22;;;;;;;17.86;88.23;68758.81;5078213;22;20044;-88
2022/07/26 03:34:53;;;;;;;8.10;2.88;;;;;;;;;;5091332;28;20044;-87
2022/07/26 03:37:18;;;;;;;9.75;3.58;;;;;;;;;;5087600;28;20044;-86
2022/07/26 03:39:44;;;;;;;11.65;3.70;;;;;;;17.80;89.12;68753.09;5086452;28;20048;-87
2022/07/26 03:42:09;;;;;;;16.42;4.40;;;;;;;17.82;88.83;68754.84;5073601;28;20040;-87
2022/07/26 03:44:35;;;;;;;9.55;3.38;;;;;;;17.77;89.57;68751.78;5076392;28;20212;-89
2022/07/26 03:47:00;;;;;;;10.65;3.42;;;;;;;17.84;88.87;68757.13;5052126;28;20630;-87
2022/07/26 03:49:26;;;;;;;10.50;3.50;;;;;;;17.83;89.20;68755.97;5077659;28;20040;-87
2022/07/26 03:51:51;;;;;;;12.20;3.83;;;;;;;;;;5085235;28;20118;-87
2022/07/26 03:54:17;;;;;;;13.45;3.97;;;;;;;;;;5075876;28;20056;-88
2022/07/26 03:56:42;;;;;;;11.50;3.77;;;;;;;17.81;89.90;68756.38;5068685;28;20043;-86
2022/07/26 03:59:08;;;;;;;11.77;4.30;;;;;;;;;;5079275;28;20300;-88
2022/07/26 04:01:35;;;;;;;9.73;3.70;;;;;;;17.76;90.30;68747.97;5075979;28;20040;-87
2022/07/26 04:04:01;;;;;;;12.27;4.60;;;;;;;;;;5068980;28;20485;-87
2022/07/26 04:06:28;;;;;;;10.68;3.70;;;;;;;17.79;89.97;68751.97;5076599;28;20044;-87
2022/07/26 04:08:54;;;;;;;11.25;4.10;;;;;;;17.71;90.52;68742.81;5079907;28;20044;-87
2022/07/26 04:11:19;;;;;;;14.40;4.18;;;;;;;;;;5072032;28;20480;-87
2022/07/26 04:13:45;;;;;;;10.37;4.03;;;;;;;17.75;90.49;68747.41;5079377;28;20040;-87
2022/07/26 04:16:10;;;;;;;10.07;4.25;;;;;;;17.68;91.43;68738.84;5079790;28;20278;-87
2022/07/26 04:18:36;;;;;;;10.70;3.88;;;;;;;17.73;91.55;68744.53;5088863;28;20625;-86
2022/07/26 04:21:01;;;;;;;12.55;4.18;;;;;;;17.75;91.41;68746.81;5072399;28;20045;-87
2022/07/26 04:23:27;;;;;;;15.63;4.38;;;;;;;17.75;91.63;68742.00;5054395;28;20037;-87
2022/07/26 04:25:52;;;;;;;10.23;4.07;;;;;;;;;;5061943;28;20377;-87
2022/07/26 04:28:17;;;;;;;11.90;4.30;;;;;;;17.85;91.04;68749.59;5071147;28;20129;-87
2022/07/26 04:30:43;;;;;;;11.82;3.90;;;;;;;;;;5081126;28;20098;-87
2022/07/26 04:33:08;;;;;;;11.32;4.60;;;;;;;;;;5078778;28;20124;-87
2022/07/26 04:35:34;;;;;;;12.75;4.53;;;;;;;17.87;91.92;68760.53;5077735;28;20061;-86
2022/07/26 04:38:01;;;;;;;11.55;4.38;;;;;;;17.95;91.61;68769.69;5081741;28;20091;-88
2022/07/26 04:40:27;;;;;;;8.57;3.53;;;;;;;17.85;92.32;68757.69;5073071;28;20036;-86
2022/07/26 04:42:52;;;;;;;11.65;3.80;;;;;;;17.94;92.16;68763.13;5022156;28;20072;-87
2022/07/26 04:45:18;;;;;;;12.77;4.05;;;;;;;;;;5030307;28;20627;-86
2022/07/26 04:47:47;;;;;;;10.50;4.25;;;;;;;17.91;92.84;68765.09;5026190;28;20044;-87
2022/07/26 04:50:12;;;;;;;9.90;3.72;;;;;;;18.00;92.10;68775.38;5042197;28;20111;-88
2022/07/26 04:52:38;;;;;;;12.07;5.15;;;;;;;18.01;92.13;68779.22;5028352;28;20048;-87
2022/07/26 04:55:05;;;;;;;12.13;4.18;;;;;;;18.02;92.39;68777.66;5052105;28;20123;-89
2022/07/26 04:57:31;;;;;;;11.40;4.00;;;;;;;17.97;92.87;68771.38;5048438;28;20037;-87
2022/07/26 04:59:57;;;;;;;10.23;3.70;;;;;;;17.98;92.91;68772.50;5046474;28;20435;-87
2022/07/26 05:02:22;;;;;;;11.25;3.88;;;;;;;17.97;93.24;68766.00;5040164;28;20037;-87
2022/07/26 05:04:48;;;;;;;10.55;4.28;;;;;;;18.00;93.16;68775.38;5037959;28;20397;-87
2022/07/26 05:07:13;;;;;;;12.63;4.15;;;;;;;17.97;93.88;68771.94;5053955;28;20044;-88
2022/07/26 05:09:38;;;;;;;14.43;4.60;;;;;;;18.04;93.54;68774.56;5064017;28;20123;-87
2022/07/26 05:12:04;;;;;;;13.00;4.55;;;;;;;;;;5068867;28;20067;-86
2022/07/26 05:14:29;;;;;;;13.93;4.90;;;;;;;;;;5067310;28;20041;-88
2022/07/26 05:16:54;;;;;;;12.77;4.63;;;;;;;18.04;94.16;68779.94;5067492;28;20549;-88
2022/07/26 05:19:20;;;;;;;12.00;4.40;;;;;;;;;;5062978;28;20299;-87
2022/07/26 05:21:45;;;;;;;10.73;4.77;;;;;;;18.04;94.45;68779.94;5056606;28;20048;-87
2022/07/26 05:24:10;;;;;;;11.95;5.22;;;;;;;18.12;94.30;68791.19;5075554;28;20699;-87
2022/07/26 05:26:36;;;;;;;12.32;4.80;;;;;;;;;;5068742;28;20040;-87
2022/07/26 05:29:01;;;;;;;12.45;5.28;;;;;;;18.10;94.84;68786.22;5070883;28;20071;-87
2022/07/26 05:31:27;;;;;;;12.07;5.18;;;;;;;18.07;95.16;68782.81;5067875;28;20511;-87
2022/07/26 05:33:53;;;;;;;8.82;4.60;;;;;;;;;;5064275;28;20049;-87
2022/07/26 05:36:19;;;;;;;9.68;4.30;;;;;;;18.12;95.45;68788.50;5080566;28;20036;-87
2022/07/26 05:38:44;;;;;;;10.40;4.57;;;;;;;;;;5095652;28;20036;-87
2022/07/26 05:41:10;;;;;;;11.30;4.45;;;;;;;18.30;94.51;68807.91;5084357;28;20039;-88
2022/07/26 05:43:36;;;;;;;10.45;4.82;;;;;;;18.19;95.39;68798.63;5072084;28;20078;-87
2022/07/26 05:46:01;;;;;;;9.85;4.55;;;;;;;18.24;95.16;68796.22;5079360;28;20040;-87
2022/07/26 05:48:33;;;;;;;8.75;4.07;;;;;;;18.27;95.09;68805.63;5079959;28;20412;-87
2022/07/26 05:51:07;;;;;;;10.32;4.75;;;;;;;18.26;95.25;68804.47;5073046;28;20059;-88
2022/07/26 05:53:33;;;;;;;11.48;5.45;;;;;;;18.30;95.42;68808.50;5058635;28;20036;-89
2022/07/26 05:55:58;;;;;;;10.55;4.75;;;;;;;18.28;95.74;68800.81;5073035;28;20537;-86
2022/07/26 05:58:23;;;;;;;11.70;5.70;;;;;;;18.30;95.70;68803.09;5073097;28;20051;-85
2022/07/26 06:00:49;;;;;;;10.57;5.82;;;;;;;;;;5058581;28;20044;-86
2022/07/26 06:03:23;;;;;;;12.20;5.20;;;;;;;;;;5067916;28;20040;-86
2022/07/26 06:05:49;;;;;;;11.85;4.78;;;;;;;;;;5054786;28;20273;-85
2022/07/26 06:08:15;;;;;;;9.65;4.55;;;;;;;18.44;95.41;68815.81;5067336;28;20041;-86
2022/07/26 06:10:40;;;;;;;11.95;5.30;;;;;;;;;;5068115;28;20051;-86
2022/07/26 06:13:05;;;;;;;11.90;5.57;;;;;;;;;;5067283;28;20044;-85
2022/07/26 06:15:31;;;;;;;11.37;5.80;;;;;;;18.57;95.02;68832.78;5061073;28;20512;-86
2022/07/26 06:17:56;;;;;;;10.52;5.60;;;;;;;18.67;94.92;68850.16;5071654;28;20274;-86
2022/07/26 06:20:21;;;;;;;9.68;5.35;;;;;;;18.76;94.88;68859.31;5071030;28;20037;-85
2022/07/26 06:22:47;;;;;;;13.15;5.47;;;;;;;18.90;93.58;68869.91;5073566;28;20040;-86
2022/07/26 06:25:12;;;;;;;9.88;5.30;;;;;;;18.88;93.25;68873.03;5085293;28;20035;-86
2022/07/26 06:27:38;;;;;;;8.60;5.18;;;;;;;18.87;92.65;68866.47;5091082;28;20091;-87
2022/07/26 06:30:04;;;;;;;14.23;6.10;;;;;;;18.96;91.98;68876.78;5094861;28;20221;-86
2022/07/26 06:32:29;;;;;;;12.55;5.85;;;;;;;18.92;92.60;68872.19;5085254;28;20052;-86
2022/07/26 06:34:54;;;;;;;10.30;6.00;;;;;;;18.94;91.85;68880.44;5083481;28;20109;-87
2022/07/26 06:37:20;;;;;;;12.48;6.80;;;;;;;19.00;91.62;68881.34;5067771;28;20049;-86
2022/07/26 06:39:45;;;;;;;11.18;6.60;;;;;;;18.94;91.34;68874.50;5070588;28;20044;-86
2022/07/26 06:42:11;;;;;;;10.82;5.80;;;;;;;18.99;91.49;68885.00;5066296;28;20077;-85
2022/07/26 06:44:36;;;;;;;9.90;7.25;;;;;;;18.98;90.47;68879.03;5066881;28;20076;-86
2022/07/26 06:47:01;;;;;;;14.40;7.55;;;;;;;;;;5059090;28;20123;-86
2022/07/26 06:49:27;;;;;;;15.35;7.15;;;;;;;;;;5077308;28;20377;-85
2022/07/26 06:51:52;;;;;;;11.57;6.15;;;;;;;;;;5066812;28;20045;-85
2022/07/26 06:54:17;;;;;;;12.17;7.67;;;;;;;19.04;90.27;68891.28;5070042;28;20045;-86
2022/07/26 06:56:43;;;;;;;9.43;7.00;;;;;;;18.93;90.73;68871.22;5075732;28;20271;-86
2022/07/26 06:59:09;;;;;;;10.05;6.85;;;;;;;19.09;90.40;68891.03;5071702;28;20037;-87
2022/07/26 07:01:34;;;;;;;11.77;7.22;;;;;;;19.13;89.58;68901.00;5076451;28;20048;-86
2022/07/26 07:03:59;;;;;;;10.85;6.63;;;;;;;;;;5064264;28;20091;-86
2022/07/26 07:06:24;;;;;;;11.07;6.50;;;;;;;;;;5067452;28;20104;-86
2022/07/26 07:08:50;;;;;;;10.57;6.53;;;;;;;19.32;88.00;68922.16;5069180;28;20331;-86
2022/07/26 07:11:15;;;;;;;13.68;7.40;;;;;;;19.24;87.38;68913.00;5081145;28;20289;-86
2022/07/26 07:13:40;;;;;;;11.57;7.53;;;;;;;19.27;86.44;68917.00;5086202;28;20451;-86
2022/07/26 07:16:06;;;;;;;10.35;7.20;;;;;;;19.32;85.70;68917.31;5086093;28;20032;-86
2022/07/26 07:18:31;;;;;;;9.55;6.10;;;;;;;;;;5063331;28;20040;-86
2022/07/26 07:20:57;;;;;;;9.93;6.03;;;;;;;18.91;89.74;68871.63;5075182;28;20085;-86
2022/07/26 07:23:25;;;;;;;9.35;6.85;;;;;;;;;;5084533;28;20282;-86
2022/07/26 07:25:50;;;;;;;10.70;9.10;;;;;;;18.32;97.33;68810.19;5068668;28;20569;-87
2022/07/26 07:28:16;;;;;;;11.02;7.35;;;;;;;18.03;100.00;68778.22;5066099;28;20127;-86
2022/07/26 07:30:41;;;;;;;13.77;7.50;;;;;;;17.78;100.00;68745.47;5083562;28;20111;-86
2022/07/26 07:33:11;;;;;;;10.05;5.18;;;;;;;17.70;100.00;68747.06;5062937;28;20044;-87
2022/07/26 07:35:37;;;;;;;8.85;4.82;;;;;;;17.54;100.00;68723.41;5070040;28;20051;-87
2022/07/26 07:38:02;;;;;;;8.63;4.65;;;;;;;17.40;100.00;68708.00;5063336;28;20036;-86
2022/07/26 07:40:28;;;;;;;6.75;4.25;;;;;;;17.26;100.00;68692.03;5068719;28;20044;-86
2022/07/26 07:42:53;;;;;;;12.20;4.93;;;;;;;17.22;100.00;68690.19;5070165;28;20033;-86
2022/07/26 07:45:19;;;;;;;8.60;4.68;;;;;;;17.18;100.00;68683.50;5064551;28;20166;-86
2022/07/26 07:47:44;;;;;;;11.25;4.70;;;;;;;17.31;100.00;68697.75;5082557;28;20059;-86
2022/07/26 07:50:09;;;;;;;7.30;4.57;;;;;;;;;;5060012;28;20132;-86
2022/07/26 07:52:37;;;;;;;8.98;4.60;;;;;;;17.29;100.00;68696.03;5069915;28;20064;-87
2022/07/26 07:55:03;;;;;;;7.63;4.10;;;;;;;17.23;100.00;68694.56;5068693;28;20152;-87
2022/07/26 07:57:28;;;;;;;9.77;4.70;;;;;;;;;;5083705;28;20048;-86
2022/07/26 07:59:54;;;;;;;9.88;4.82;;;;;;;17.25;100.00;68694.16;5083436;28;20049;-86
2022/07/26 08:02:20;;;;;;;6.72;4.28;;;;;;;17.22;100.00;68687.47;5078231;28;20279;-86
2022/07/26 08:04:46;;;;;;;9.10;5.38;;;;;;;17.21;100.00;68686.91;5073395;28;20037;-86
2022/07/26 08:08:09;;;;;;;;;;;;;;;;;;;;;
2022/07/26 08:10:53;;;;;;;8.70;5.22;;;;;;;;;;5032067;28;20539;-84
2022/07/26 08:13:44;;;;;;;8.90;4.70;;;;;;;17.41;100.00;68709.16;5019036;28;20061;-86
2022/07/26 08:19:19;;;;;;;10.85;5.35;;;;;;;17.62;100.00;68732.00;5016164;22;20026;-78
2022/07/26 08:21:45;;;;;;;10.88;6.63;;;;;;;17.71;100.00;68742.81;5071673;28;20044;-78
2022/07/26 08:24:10;;;;;;;8.30;6.60;;;;;;;;;;5069370;28;20043;-77
2022/07/26 08:26:36;;;;;;;10.48;6.30;;;;;;;17.69;100.00;68735.16;5068607;28;20036;-77
2022/07/26 08:29:02;;;;;;;10.40;6.90;;;;;;;17.69;100.00;68740.53;5068681;28;20544;-76
2022/07/26 08:31:28;;;;;;;12.48;7.13;;;;;;;17.76;100.00;68748.53;5066095;28;20043;-77
2022/07/26 08:33:54;;;;;;;9.25;6.72;;;;;;;17.79;100.00;68754.66;5068863;28;20119;-77
2022/07/26 08:36:19;;;;;;;10.70;5.63;;;;;;;;;;5067661;28;20041;-77
2022/07/26 08:38:44;;;;;;;6.63;5.47;;;;;;;;;;5067740;28;20048;-77
2022/07/26 08:41:10;;;;;;;9.27;5.43;;;;;;;17.60;100.00;68730.25;5068032;28;20537;-77
2022/07/26 08:43:35;;;;;;;8.02;4.93;;;;;;;;;;5068726;28;20037;-77
2022/07/26 08:46:01;;;;;;;9.23;4.97;;;;;;;17.39;100.00;68700.94;5068121;28;20036;-76
2022/07/26 08:48:27;;;;;;;5.93;3.78;;;;;;;17.37;100.00;68699.22;5083701;28;20303;-77
2022/07/26 08:50:54;;;;;;;9.57;4.97;;;;;;;17.50;100.00;68718.88;5068001;28;20742;-77
2022/07/26 08:53:19;;;;;;;6.90;4.13;;;;;;;;;;5067428;28;20040;-77
2022/07/26 08:55:45;;;;;;;9.20;4.55;;;;;;;17.40;100.00;68707.44;5068875;28;20048;-77
2022/07/26 08:58:10;;;;;;;5.70;3.55;;;;;;;;;;5065907;28;20659;-76
2022/07/26 09:00:36;;;;;;;6.63;4.40;;;;;;;;;;5061687;28;20048;-77
2022/07/26 09:03:03;;;;;;;9.98;5.00;;;;;;;;;;5062962;28;20795;-77
2022/07/26 09:05:36;;;;;;;8.18;4.93;;;;;;;17.27;100.00;68696.44;5067857;28;20121;-76
2022/07/26 09:08:26;;;;;;;6.20;3.15;;;;;;;17.11;100.00;68676.06;5067849;28;20246;-77
2022/07/26 09:10:52;;;;;;;4.88;2.17;;;;;;;;;;5047772;28;20048;-76
2022/07/26 09:13:17;;;;;;;3.85;1.70;;;;;;;16.72;100.00;68626.78;5067904;28;20040;-77
2022/07/26 09:15:43;;;;;;;4.85;2.15;;;;;;;16.79;100.00;68640.13;5067299;28;20516;-77
2022/07/26 09:18:24;;;;;;;6.18;1.80;;;;;;;16.71;100.00;68631.00;5068251;28;20335;-77
2022/07/26 09:20:50;;;;;;;3.88;1.52;;;;;;;;;;5066994;28;20059;-77
2022/07/26 09:23:16;;;;;;;3.35;1.58;;;;;;;16.60;100.00;68621.13;5068098;28;20041;-77
2022/07/26 09:25:43;;;;;;;5.95;1.77;;;;;;;16.69;100.00;68623.34;5067155;28;20040;-77
2022/07/26 09:28:21;;;;;;;4.18;1.90;;;;;;;;;;5068255;28;20037;-76
2022/07/26 09:30:54;;;;;;;5.28;1.73;;;;;;;16.47;100.00;68607.47;5022153;28;20422;-76
2022/07/26 09:33:20;;;;;;;6.25;2.03;;;;;;;16.59;100.00;68617.31;5031054;28;20044;-76
2022/07/26 09:36:01;;;;;;;6.57;2.13;;;;;;;16.78;100.00;68633.63;5025419;28;20038;-75
2022/07/26 09:38:39;;;;;;;6.70;2.40;;;;;;;16.88;100.00;68650.41;5037841;28;20066;-78
2022/07/26 09:41:18;;;;;;;7.05;1.80;;;;;;;;;;5031101;28;20053;-77
2022/07/26 09:43:44;;;;;;;4.20;2.00;;;;;;;16.80;100.00;68641.28;5030957;28;20053;-76
2022/07/26 09:46:10;;;;;;;7.38;2.40;;;;;;;16.91;100.00;68653.81;5029804;28;20045;-77
2022/07/26 09:48:38;;;;;;;4.93;2.22;;;;;;;17.07;100.00;68673.63;5052267;28;20040;-77
2022/07/26 09:51:04;;;;;;;6.80;2.85;;;;;;;;;;5053510;28;20043;-77
2022/07/26 09:53:38;;;;;;;5.20;2.38;;;;;;;17.31;100.00;68698.31;5058682;28;20045;-78
2022/07/26 09:56:04;;;;;;;8.05;3.05;;;;;;;17.26;100.00;68695.31;5049131;28;20121;-76
2022/07/26 09:58:30;;;;;;;5.90;2.60;;;;;;;17.26;100.00;68692.03;5051144;28;20112;-78
2022/07/26 10:00:55;;;;;;;5.32;2.75;;;;;;;17.33;100.00;68700.59;5055112;28;20048;-78
2022/07/26 10:03:21;;;;;;;5.57;3.20;;;;;;;17.35;100.00;68702.88;5060044;28;20037;-78
2022/07/26 10:05:46;;;;;;;6.82;3.08;;;;;;;17.64;100.00;68737.53;5051009;28;20554;-77
2022/07/26 10:08:12;;;;;;;6.07;2.75;;;;;;;;;;5054078;28;20041;-80
2022/07/26 10:10:59;;;;;;;5.75;3.55;;;;;;;17.76;100.00;68748.53;5062672;28;20426;-78
2022/07/26 10:13:26;;;;;;;6.93;2.90;;;;;;;17.68;100.00;68734.00;5054397;28;20068;-78
2022/07/26 10:15:55;;;;;;;6.60;2.90;;;;;;;17.89;100.00;68762.25;5055263;28;20044;-80
2022/07/26 10:18:35;;;;;;;5.63;3.13;;;;;;;17.90;100.00;68755.88;5047980;28;20041;-77
2022/07/26 10:21:24;;;;;;;5.57;2.90;;;;;;;17.85;100.00;68757.69;5052218;28;20574;-77
2022/07/26 10:23:57;;;;;;;8.80;3.10;;;;;;;18.01;100.00;68770.53;5063711;28;20396;-77
2022/07/26 10:26:32;;;;;;;6.07;3.13;;;;;;;18.18;100.00;68794.78;5043469;28;20043;-76
2022/07/26 10:29:15;;;;;;;7.57;3.38;;;;;;;;;;5046331;28;20128;-77
2022/07/26 10:31:48;;;;;;;5.30;3.03;;;;;;;17.93;100.00;68766.81;5050066;28;20040;-77
2022/07/26 10:34:35;;;;;;;6.22;3.17;;;;;;;18.13;100.00;68791.78;5052791;28;20041;-77
2022/07/26 10:37:03;;;;;;;7.93;3.67;;;;;;;18.39;100.00;68812.81;5068040;28;20044;-78
2022/07/26 10:39:29;;;;;;;6.22;3.78;;;;;;;18.34;100.00;68815.19;5059737;28;20432;-78
2022/07/26 10:42:03;;;;;;;5.82;3.90;;;;;;;;;;5034587;28;20052;-79
2022/07/26 10:44:32;;;;;;;6.63;3.45;;;;;;;18.37;100.00;68811.09;5034919;28;20120;-77
2022/07/26 10:47:03;;;;;;;6.40;3.55;;;;;;;18.46;100.00;68821.34;5036121;28;20045;-78
2022/07/26 10:49:31;;;;;;;7.47;4.30;;;;;;;18.35;100.00;68806.09;5036147;28;20065;-77
2022/07/26 10:52:08;;;;;;;7.15;3.83;;;;;;;18.41;100.00;68815.06;5031357;28;20042;-78
2022/07/26 10:55:02;;;;;;;5.93;3.50;;;;;;;18.35;100.00;68808.22;5035047;28;20033;-76
2022/07/26 10:57:47;;;;;;;6.82;3.40;;;;;;;18.25;100.00;68803.34;5036213;28;20111;-77
2022/07/26 11:00:16;;;;;;;7.25;3.58;;;;;;;18.20;100.00;68797.63;5036839;28;20033;-80
2022/07/26 11:02:42;;;;;;;6.60;3.33;;;;;;;18.38;100.00;68817.03;5039318;28;20166;-78
2022/07/26 11:05:16;;;;;;;8.48;3.90;;;;;;;18.47;100.00;68827.31;5038227;28;20115;-78
2022/07/26 11:07:47;;;;;;;6.18;3.72;;;;;;;;;;5039832;28;20034;-78
2022/07/26 11:10:13;;;;;;;6.05;2.75;;;;;;;18.47;100.00;68822.50;5041788;28;20503;-77
2022/07/26 11:12:38;;;;;;;4.10;2.10;;;;;;;18.40;97.46;68819.31;5032975;28;20052;-77
2022/07/26 11:15:17;;;;;;;5.13;1.40;;;;;;;;;;5040017;28;20037;-76
2022/07/26 11:17:42;;;;;;;8.63;2.17;;;;;;;;;;5038704;28;20078;-76
2022/07/26 11:20:08;;;;;;;5.27;1.50;;;;;;;18.48;93.93;68831.16;5030698;28;20569;-76
2022/07/26 11:22:37;;;;;;;5.15;1.52;;;;;;;;;;5029411;28;20375;-76
2022/07/26 11:25:03;;;;;;;5.90;1.67;;;;;;;;;;5031498;28;20076;-77
2022/07/26 11:27:29;;;;;;;3.53;1.55;;;;;;;18.21;95.37;68798.19;5030470;28;20048;-77
2022/07/26 11:29:54;;;;;;;4.07;1.70;;;;;;;;;;5036297;28;20045;-78
2022/07/26 11:32:23;;;;;;;3.78;1.48;;;;;;;18.25;95.14;68803.34;5044895;28;20127;-77
2022/07/26 11:35:02;;;;;;;2.55;1.50;;;;;;;18.20;95.06;68797.63;5047804;28;20044;-77
2022/07/26 11:37:28;;;;;;;4.25;1.30;;;;;;;18.58;100.00;68839.31;5043489;28;20044;-78
2022/07/26 11:39:54;;;;;;;3.30;1.20;;;;;;;18.80;95.82;68858.50;5051015;28;20037;-77
2022/07/26 11:42:20;;;;;;;3.65;1.23;;;;;;;;;;5051058;28;20048;-75
2022/07/26 11:44:46;;;;;;;4.88;1.23;;;;;;;;;;5045945;28;20735;-76
2022/07/26 11:47:16;;;;;;;4.35;1.10;;;;;;;19.09;91.82;68897.00;5050466;28;20056;-77
2022/07/26 11:49:41;;;;;;;3.95;1.17;;;;;;;19.25;89.93;68914.13;5041559;28;20040;-78
2022/07/26 11:52:07;;;;;;;3.42;0.95;;;;;;;19.44;87.90;68929.88;5038768;28;20040;-77
2022/07/26 11:54:42;;;;;;;3.92;1.10;;;;;;;;;;5031929;28;20045;-77
2022/07/26 11:57:07;;;;;;;5.35;1.40;;;;;;;;;;5034754;28;20176;-77
2022/07/26 11:59:35;;;;;;;5.20;0.90;;;;;;;19.21;86.87;68909.59;5040549;28;20124;-77
2022/07/26 12:02:02;;;;;;;2.80;0.90;;;;;;;19.30;87.60;68914.47;5044816;28;20606;-78
2022/07/26 12:04:34;;;;;;;2.80;1.10;;;;;;;19.32;85.63;68916.75;5043630;28;20048;-79
2022/07/26 12:07:02;;;;;;;4.55;1.10;;;;;;;;;;5043332;28;20037;-77
2022/07/26 12:09:33;;;;;;;4.55;1.50;;;;;;;19.35;84.11;68920.75;5032727;28;20591;-78
2022/07/26 12:11:59;;;;;;;2.45;0.80;;;;;;;19.43;83.97;68929.31;5034842;28;20128;-79
2022/07/26 12:14:29;;;;;;;3.47;0.80;;;;;;;19.45;83.42;68931.63;5044773;28;20126;-77
2022/07/26 12:16:55;;;;;;;2.80;0.90;;;;;;;19.38;81.66;68929.56;5034905;28;20045;-77
2022/07/26 12:19:25;;;;;;;3.28;0.70;;;;;;;19.45;82.09;68928.31;5042884;28;20029;-78